Time;durP1;ratioP1;P1;durP2;ratioP2;P2;SDS_P1;SDS_P2;PMS_P1;PMS_P2;Temp;Humidity;BMP_temperature;BMP_pressure;BME280_temperature;BME280_humidity;BME280_pressure;Samples;Min_cycle;Max_cycle;Signal;HPM_P1;HPM_P2
2024/02/29 05:01:44;;;;;;;18.05;9.65;;;2.10;99.90;;;;;;5351814;23;21643;-69
2024/02/29 05:04:11;;;;;;;17.30;9.70;;;2.10;99.90;;;;;;4970753;28;20556;-70
2024/02/29 05:06:38;;;;;;;17.83;8.32;;;2.10;99.90;;;;;;4966469;28;20220;-69
2024/02/29 05:09:06;;;;;;;14.77;8.82;;;2.20;99.90;;;;;;4963491;28;20229;-69
2024/02/29 05:11:33;;;;;;;12.55;7.72;;;2.10;99.90;;;;;;4962823;28;20241;-69
2024/02/29 05:13:59;;;;;;;20.63;11.15;;;2.10;99.90;;;;;;4958807;28;20217;-70
2024/02/29 05:16:26;;;;;;;23.55;10.30;;;2.10;99.90;;;;;;4960851;28;20206;-69
2024/02/29 05:18:54;;;;;;;14.32;7.85;;;2.10;99.90;;;;;;4954478;28;20215;-69
2024/02/29 05:21:21;;;;;;;22.67;9.23;;;2.10;99.90;;;;;;4954888;28;20559;-69
2024/02/29 05:23:48;;;;;;;20.23;11.77;;;2.20;99.90;;;;;;4957538;28;20301;-70
2024/02/29 05:26:14;;;;;;;18.52;7.68;;;2.20;99.90;;;;;;4964733;28;20232;-70
2024/02/29 05:28:41;;;;;;;20.80;10.52;;;2.10;99.90;;;;;;4960339;28;20230;-69
2024/02/29 05:31:08;;;;;;;22.35;10.18;;;2.10;99.90;;;;;;4964935;28;20313;-69
2024/02/29 05:33:35;;;;;;;25.48;12.88;;;2.10;99.90;;;;;;4964267;28;20209;-69
2024/02/29 05:36:03;;;;;;;26.73;12.57;;;2.00;99.90;;;;;;4968192;28;20607;-70
2024/02/29 05:38:30;;;;;;;22.25;10.98;;;2.00;99.90;;;;;;4961327;28;20683;-68
2024/02/29 05:40:57;;;;;;;21.25;11.13;;;2.10;99.90;;;;;;4958955;28;20228;-68
2024/02/29 05:43:25;;;;;;;14.13;8.77;;;2.10;99.90;;;;;;4958851;28;20220;-69
2024/02/29 05:45:51;;;;;;;16.38;9.30;;;2.10;99.90;;;;;;4961035;28;20232;-68
2024/02/29 05:48:18;;;;;;;22.58;9.45;;;2.10;99.90;;;;;;4963876;28;20235;-69
2024/02/29 05:50:45;;;;;;;16.30;7.63;;;2.10;99.90;;;;;;4961233;28;20275;-69
2024/02/29 05:53:14;;;;;;;18.63;10.40;;;2.10;99.90;;;;;;4960570;28;20213;-69
2024/02/29 05:55:41;;;;;;;14.43;9.13;;;2.00;99.90;;;;;;4964907;28;20215;-69
2024/02/29 05:58:08;;;;;;;16.95;8.80;;;2.00;99.90;;;;;;4967419;28;20847;-69
2024/02/29 06:00:34;;;;;;;18.38;9.07;;;1.90;99.90;;;;;;4962867;28;20730;-69
2024/02/29 06:03:02;;;;;;;17.20;8.43;;;1.90;99.90;;;;;;4963915;28;20216;-68
2024/02/29 06:05:29;;;;;;;17.65;9.43;;;1.90;99.90;;;;;;4962411;28;20304;-69
2024/02/29 06:07:56;;;;;;;14.68;8.57;;;1.90;99.90;;;;;;4959979;28;20209;-69
2024/02/29 06:10:24;;;;;;;21.55;9.75;;;1.90;99.90;;;;;;4955501;28;20205;-69
2024/02/29 06:12:51;;;;;;;16.02;9.60;;;1.90;99.90;;;;;;4970723;28;20218;-69
2024/02/29 06:15:19;;;;;;;18.10;9.35;;;1.90;99.90;;;;;;4959200;28;20206;-68
2024/02/29 06:17:45;;;;;;;14.85;7.80;;;1.90;99.90;;;;;;4960662;28;20287;-69
2024/02/29 06:20:13;;;;;;;24.75;11.90;;;2.00;99.90;;;;;;4965541;28;20857;-68
2024/02/29 06:22:40;;;;;;;14.85;8.75;;;2.00;99.90;;;;;;4952647;28;20218;-69
2024/02/29 06:25:08;;;;;;;26.05;11.32;;;2.00;99.90;;;;;;4960721;28;20321;-69
2024/02/29 06:27:37;;;;;;;15.95;10.32;;;2.10;99.90;;;;;;4956594;28;20237;-69
2024/02/29 06:30:06;;;;;;;16.23;9.10;;;2.10;99.90;;;;;;4954776;28;20232;-68
2024/02/29 06:32:33;;;;;;;14.35;7.95;;;2.10;99.90;;;;;;4956735;28;20230;-69
2024/02/29 06:34:59;;;;;;;20.92;9.00;;;2.10;99.90;;;;;;4958829;28;20271;-69
2024/02/29 06:37:26;;;;;;;21.38;9.57;;;2.10;99.90;;;;;;4966055;28;20335;-68
2024/02/29 06:39:55;;;;;;;16.85;9.48;;;2.20;99.90;;;;;;4959603;28;20205;-70
2024/02/29 06:42:22;;;;;;;12.93;9.52;;;2.20;99.90;;;;;;4965313;28;20291;-69
2024/02/29 06:44:51;;;;;;;17.15;8.63;;;2.20;99.90;;;;;;4956718;28;20211;-70
2024/02/29 06:47:18;;;;;;;12.35;7.70;;;2.20;99.90;;;;;;4967271;28;20209;-69
2024/02/29 06:49:44;;;;;;;15.05;9.13;;;2.20;99.90;;;;;;4956023;28;20225;-70
2024/02/29 06:52:11;;;;;;;15.90;7.57;;;2.30;99.90;;;;;;4954039;28;20233;-70
2024/02/29 06:54:38;;;;;;;21.20;10.13;;;2.30;99.90;;;;;;4964017;28;20213;-70
2024/02/29 06:57:04;;;;;;;13.27;8.50;;;2.40;99.90;;;;;;4966292;28;20220;-69
2024/02/29 06:59:31;;;;;;;14.32;8.13;;;2.40;99.90;;;;;;4964996;28;20477;-69
2024/02/29 07:01:59;;;;;;;21.38;9.18;;;2.50;99.90;;;;;;4953950;28;20253;-70
2024/02/29 07:04:26;;;;;;;11.38;10.07;;;2.50;99.90;;;;;;4958325;28;20211;-69
2024/02/29 07:06:53;;;;;;;27.50;8.85;;;2.60;99.90;;;;;;4950995;28;20265;-69
2024/02/29 07:09:19;;;;;;;12.52;7.65;;;2.70;99.90;;;;;;4959760;28;20229;-69
2024/02/29 07:11:46;;;;;;;21.58;10.32;;;2.70;99.90;;;;;;4951061;28;20251;-69
2024/02/29 07:14:13;;;;;;;23.27;8.75;;;2.80;99.90;;;;;;4955615;28;20210;-69
2024/02/29 07:16:39;;;;;;;16.58;9.15;;;2.80;99.90;;;;;;4958068;28;20212;-69
2024/02/29 07:19:07;;;;;;;15.30;8.73;;;2.90;99.90;;;;;;4957223;28;20582;-70
2024/02/29 07:21:35;;;;;;;14.40;7.65;;;3.00;99.90;;;;;;4962170;28;20233;-69
2024/02/29 07:24:02;;;;;;;19.08;9.23;;;3.00;99.90;;;;;;4953480;28;20223;-69
2024/02/29 07:26:30;;;;;;;19.92;8.52;;;3.10;99.90;;;;;;4960160;28;20679;-69
2024/02/29 07:28:57;;;;;;;10.93;6.15;;;3.20;99.90;;;;;;4949907;28;20229;-69
2024/02/29 07:31:25;;;;;;;27.95;11.35;;;3.30;99.90;;;;;;4950115;28;20232;-69
2024/02/29 07:33:53;;;;;;;10.73;7.22;;;3.30;99.90;;;;;;4952149;28;20216;-68
2024/02/29 07:36:22;;;;;;;17.48;9.48;;;3.30;99.90;;;;;;4960874;28;20294;-69
2024/02/29 07:38:49;;;;;;;15.60;10.15;;;3.30;99.90;;;;;;4949115;28;20222;-68
2024/02/29 07:41:16;;;;;;;14.13;8.13;;;3.40;99.90;;;;;;4962186;28;20238;-69
2024/02/29 07:43:42;;;;;;;17.88;9.90;;;3.50;99.90;;;;;;4955881;28;20213;-68
2024/02/29 07:46:09;;;;;;;17.92;8.88;;;3.60;99.90;;;;;;4952763;28;20207;-68
2024/02/29 07:48:36;;;;;;;15.48;9.35;;;3.80;99.90;;;;;;4960469;28;20211;-67
2024/02/29 07:51:02;;;;;;;18.00;9.18;;;3.90;99.90;;;;;;4970695;28;20610;-67
2024/02/29 07:53:30;;;;;;;15.05;8.55;;;3.90;99.90;;;;;;4961164;28;20275;-68
2024/02/29 07:55:57;;;;;;;20.33;11.10;;;4.00;99.90;;;;;;4967516;28;20212;-67
2024/02/29 07:58:24;;;;;;;12.05;7.10;;;4.00;99.90;;;;;;4958519;28;20215;-68
2024/02/29 08:00:51;;;;;;;18.92;7.68;;;4.10;99.90;;;;;;4957698;28;20246;-69
2024/02/29 08:03:18;;;;;;;18.00;8.50;;;4.20;99.90;;;;;;4954590;28;20218;-68
2024/02/29 08:05:44;;;;;;;13.25;9.18;;;4.30;99.90;;;;;;4963636;28;20583;-68
2024/02/29 08:08:12;;;;;;;14.50;8.27;;;4.40;99.90;;;;;;4953770;28;20217;-68
2024/02/29 08:10:40;;;;;;;13.70;8.90;;;4.50;99.90;;;;;;4967274;28;20292;-69
2024/02/29 08:13:06;;;;;;;16.92;8.95;;;4.60;99.90;;;;;;4961361;28;20205;-69
2024/02/29 08:15:33;;;;;;;10.20;7.03;;;4.80;99.90;;;;;;4951239;28;20219;-69
2024/02/29 08:18:00;;;;;;;16.10;8.00;;;4.90;99.90;;;;;;4964184;28;20209;-69
2024/02/29 08:20:27;;;;;;;13.68;9.10;;;5.00;99.90;;;;;;4951272;28;20209;-68
2024/02/29 08:22:56;;;;;;;11.48;6.85;;;5.10;99.90;;;;;;4953211;28;20295;-68
2024/02/29 08:25:25;;;;;;;12.88;6.85;;;5.30;99.90;;;;;;4951469;28;20312;-70
2024/02/29 08:27:54;;;;;;;14.05;7.22;;;5.40;99.90;;;;;;4952012;28;20650;-68
2024/02/29 08:30:21;;;;;;;16.63;7.65;;;5.40;99.90;;;;;;4949945;28;20228;-67
2024/02/29 08:32:48;;;;;;;13.27;7.32;;;5.50;99.90;;;;;;4951431;28;20215;-69
2024/02/29 08:35:15;;;;;;;15.57;7.10;;;5.50;99.90;;;;;;4947215;28;20610;-68
2024/02/29 08:37:42;;;;;;;9.07;7.63;;;5.70;99.90;;;;;;4947893;28;20209;-67
2024/02/29 08:40:09;;;;;;;11.40;7.78;;;5.80;99.90;;;;;;4949240;28;20626;-67
2024/02/29 08:42:36;;;;;;;11.75;6.63;;;5.90;99.90;;;;;;4947488;28;20216;-67
2024/02/29 08:45:06;;;;;;;9.65;6.85;;;6.00;99.90;;;;;;4951880;28;20240;-67
2024/02/29 08:47:33;;;;;;;12.70;6.78;;;6.10;99.90;;;;;;4950047;28;20213;-67
2024/02/29 08:49:59;;;;;;;13.20;7.10;;;6.30;99.90;;;;;;4946916;28;20232;-67
2024/02/29 08:52:26;;;;;;;9.65;6.95;;;6.40;99.90;;;;;;4944079;28;20695;-67
2024/02/29 08:54:53;;;;;;;11.90;5.95;;;6.40;99.90;;;;;;4947433;28;20217;-66
2024/02/29 08:57:20;;;;;;;8.90;6.93;;;6.40;99.90;;;;;;4951731;28;20260;-67
2024/02/29 08:59:46;;;;;;;12.50;7.15;;;6.60;99.90;;;;;;4947453;28;20234;-67
2024/02/29 09:02:14;;;;;;;16.13;9.30;;;6.70;99.90;;;;;;4952788;28;20236;-66
2024/02/29 09:04:41;;;;;;;13.32;7.32;;;6.70;99.90;;;;;;4955515;28;20213;-68
2024/02/29 09:07:08;;;;;;;9.23;6.35;;;6.70;99.90;;;;;;4947735;28;20225;-67
2024/02/29 09:09:34;;;;;;;17.65;8.95;;;6.70;99.90;;;;;;4947924;28;20225;-66
2024/02/29 09:12:02;;;;;;;7.68;5.95;;;6.70;99.90;;;;;;4955308;28;20300;-67
2024/02/29 09:14:28;;;;;;;11.85;6.85;;;6.80;99.90;;;;;;4953964;28;20636;-67
2024/02/29 09:16:55;;;;;;;6.43;5.45;;;7.00;99.90;;;;;;4955494;28;20201;-68
2024/02/29 09:19:23;;;;;;;15.05;9.38;;;7.10;99.90;;;;;;4958241;28;20209;-68
2024/02/29 09:21:50;;;;;;;8.25;6.03;;;7.10;99.90;;;;;;4954481;28;20226;-69
2024/02/29 09:24:17;;;;;;;9.70;6.75;;;7.10;99.90;;;;;;4953019;28;20646;-70
2024/02/29 09:26:43;;;;;;;8.80;6.03;;;7.10;99.90;;;;;;4954419;28;20885;-68
2024/02/29 09:29:10;;;;;;;6.38;4.60;;;7.20;99.90;;;;;;4954474;28;20240;-69
2024/02/29 09:31:37;;;;;;;15.60;10.07;;;7.30;99.90;;;;;;4949796;28;20284;-68
2024/02/29 09:34:04;;;;;;;14.15;9.23;;;7.40;99.90;;;;;;4946302;28;20205;-68
2024/02/29 09:36:32;;;;;;;12.88;7.40;;;7.40;99.90;;;;;;4947891;28;20230;-67
2024/02/29 09:38:59;;;;;;;14.93;7.53;;;7.50;99.90;;;;;;4944980;28;20206;-67
2024/02/29 09:41:27;;;;;;;11.90;7.32;;;7.50;99.90;;;;;;4949466;28;20596;-68
2024/02/29 09:43:54;;;;;;;13.88;6.97;;;7.60;99.90;;;;;;4954934;28;20214;-68
2024/02/29 09:46:22;;;;;;;10.80;6.28;;;7.70;99.90;;;;;;4942818;28;20222;-69
2024/02/29 09:48:49;;;;;;;14.80;7.47;;;7.80;99.90;;;;;;4944231;28;20323;-69
2024/02/29 09:51:20;;;;;;;11.02;7.88;;;8.00;99.90;;;;;;4944774;28;20238;-70
2024/02/29 09:53:50;;;;;;;11.88;7.05;;;8.10;99.90;;;;;;4954386;28;20213;-69
2024/02/29 09:56:19;;;;;;;35.72;17.98;;;8.30;99.90;;;;;;4954630;28;20248;-69
2024/02/29 09:58:46;;;;;;;53.15;18.52;;;8.40;99.90;;;;;;4955832;28;20219;-68
2024/02/29 10:01:14;;;;;;;10.77;6.63;;;8.50;99.90;;;;;;4948413;28;20250;-68
2024/02/29 10:03:41;;;;;;;55.80;22.25;;;8.60;99.90;;;;;;4952905;28;20223;-69
2024/02/29 10:06:09;;;;;;;57.05;19.77;;;8.70;99.90;;;;;;4950961;28;20595;-68
2024/02/29 10:08:36;;;;;;;39.05;16.85;;;8.80;99.90;;;;;;4953414;28;20265;-68
2024/02/29 10:11:05;;;;;;;54.17;21.00;;;8.90;99.90;;;;;;4947463;28;20271;-69
2024/02/29 10:13:38;;;;;;;39.80;16.50;;;8.90;99.90;;;;;;4955119;28;20219;-68
2024/02/29 10:16:07;;;;;;;11.65;7.22;;;9.10;99.90;;;;;;4954666;28;20248;-69
2024/02/29 10:18:35;;;;;;;10.15;7.55;;;9.10;99.90;;;;;;4955770;28;20652;-67
2024/02/29 10:21:02;;;;;;;7.47;5.78;;;9.20;99.90;;;;;;4948146;28;20730;-67
2024/02/29 10:23:29;;;;;;;24.65;11.05;;;9.20;99.90;;;;;;4954864;28;20211;-68
2024/02/29 10:25:56;;;;;;;19.67;11.27;;;9.30;99.90;;;;;;4950630;28;20201;-68
2024/02/29 10:28:25;;;;;;;8.00;5.47;;;9.40;99.90;;;;;;4955507;28;20213;-69
2024/02/29 10:30:54;;;;;;;10.85;6.75;;;9.50;99.90;;;;;;4953191;28;20366;-67
2024/02/29 10:33:21;;;;;;;10.20;6.85;;;9.60;99.90;;;;;;4950980;28;20292;-68
2024/02/29 10:35:48;;;;;;;6.72;5.50;;;9.60;99.90;;;;;;4952876;28;20292;-67
2024/02/29 10:38:15;;;;;;;8.95;6.50;;;9.70;99.90;;;;;;4951294;28;20205;-68
2024/02/29 10:40:42;;;;;;;18.92;10.45;;;9.70;99.90;;;;;;4952408;28;20312;-68
2024/02/29 10:43:12;;;;;;;9.50;5.20;;;9.70;99.90;;;;;;4951645;28;20280;-69
2024/02/29 10:45:45;;;;;;;7.38;4.05;;;9.80;99.90;;;;;;4955324;28;20228;-68
2024/02/29 10:48:16;;;;;;;6.13;5.53;;;9.80;99.90;;;;;;4954491;28;20221;-68
2024/02/29 10:50:53;;;;;;;9.07;6.65;;;9.90;99.90;;;;;;4953061;28;20237;-67
2024/02/29 10:53:26;;;;;;;7.63;5.90;;;9.90;99.90;;;;;;4953636;28;20209;-69
2024/02/29 10:55:58;;;;;;;10.00;6.75;;;10.00;99.90;;;;;;4953734;28;20213;-69
2024/02/29 10:58:31;;;;;;;11.57;6.00;;;10.00;99.90;;;;;;4955496;28;20213;-69
2024/02/29 11:01:00;;;;;;;6.63;5.55;;;10.10;99.90;;;;;;4946434;28;20256;-69
2024/02/29 11:03:27;;;;;;;6.47;5.82;;;10.20;99.90;;;;;;4950966;28;20205;-69
2024/02/29 11:05:54;;;;;;;8.30;6.68;;;10.20;99.90;;;;;;4954940;28;20217;-70
2024/02/29 11:08:21;;;;;;;6.15;5.03;;;10.30;99.90;;;;;;4955380;28;20220;-66
2024/02/29 11:10:48;;;;;;;10.65;5.35;;;10.50;99.90;;;;;;4949766;28;20262;-69
2024/02/29 11:13:18;;;;;;;6.55;4.72;;;10.60;99.90;;;;;;4954912;28;20213;-69
2024/02/29 11:15:45;;;;;;;9.27;5.95;;;10.70;99.90;;;;;;4955305;28;20647;-69
2024/02/29 11:18:22;;;;;;;8.00;5.88;;;10.70;99.90;;;;;;4952057;28;20214;-69
2024/02/29 11:21:04;;;;;;;8.32;5.75;;;10.70;99.90;;;;;;4953289;28;20224;-68
2024/02/29 11:23:33;;;;;;;5.38;4.15;;;10.60;99.90;;;;;;4954547;28;20245;-70
2024/02/29 11:26:01;;;;;;;4.55;4.03;;;10.50;99.90;;;;;;4954888;28;20564;-70
2024/02/29 11:28:37;;;;;;;6.35;3.90;;;10.40;99.90;;;;;;4948790;28;20206;-68
2024/02/29 11:31:16;;;;;;;7.43;5.10;;;10.30;99.90;;;;;;4948505;28;20240;-69
2024/02/29 11:33:46;;;;;;;4.15;3.75;;;10.30;99.90;;;;;;4953780;28;20213;-69
2024/02/29 11:36:13;;;;;;;4.50;3.90;;;10.50;99.90;;;;;;4954091;28;20210;-69
2024/02/29 11:38:40;;;;;;;6.10;5.47;;;10.50;99.90;;;;;;4951887;28;20221;-69
2024/02/29 11:41:25;;;;;;;8.23;5.70;;;10.40;99.90;;;;;;4948576;28;20229;-70
2024/02/29 11:43:52;;;;;;;7.07;4.22;;;10.40;99.90;;;;;;4957020;28;20313;-68
2024/02/29 11:46:18;;;;;;;7.75;6.13;;;10.40;99.90;;;;;;4953568;28;20243;-69
2024/02/29 11:48:48;;;;;;;6.25;5.32;;;10.50;99.90;;;;;;4953722;28;20209;-68
2024/02/29 11:51:15;;;;;;;8.13;5.93;;;10.60;99.90;;;;;;4947310;28;20257;-69
2024/02/29 11:53:43;;;;;;;6.93;4.50;;;10.50;99.90;;;;;;4947375;28;20215;-68
2024/02/29 11:56:10;;;;;;;7.60;5.32;;;10.60;99.90;;;;;;4950809;28;20205;-69
2024/02/29 11:58:37;;;;;;;5.88;4.95;;;10.60;99.90;;;;;;4952714;28;20213;-69
2024/02/29 12:01:05;;;;;;;4.95;4.45;;;10.50;99.90;;;;;;4954088;28;20252;-70
2024/02/29 12:03:33;;;;;;;5.57;4.82;;;10.50;99.90;;;;;;4953583;28;20404;-69
2024/02/29 12:06:01;;;;;;;4.70;4.30;;;10.50;99.90;;;;;;4956694;28;20216;-68
2024/02/29 12:08:29;;;;;;;8.23;5.70;;;10.50;99.90;;;;;;4955201;28;20212;-67
2024/02/29 12:10:59;;;;;;;7.60;3.70;;;10.50;99.90;;;;;;4956904;28;20237;-66
2024/02/29 12:13:26;;;;;;;12.00;5.45;;;10.50;99.90;;;;;;4949184;28;20745;-67
2024/02/29 12:15:54;;;;;;;13.15;6.20;;;10.50;99.90;;;;;;4950803;28;20531;-68
2024/02/29 12:18:22;;;;;;;6.18;5.45;;;10.50;99.90;;;;;;4954895;28;20644;-68
2024/02/29 12:20:49;;;;;;;7.40;5.38;;;10.60;99.90;;;;;;4956165;28;20223;-69
2024/02/29 12:23:20;;;;;;;7.50;5.15;;;10.80;99.90;;;;;;4948192;28;20206;-67
2024/02/29 12:25:47;;;;;;;11.30;7.57;;;10.90;99.90;;;;;;4949213;28;20583;-67
2024/02/29 12:28:14;;;;;;;8.45;6.28;;;11.00;99.90;;;;;;4945867;28;20313;-70
2024/02/29 12:30:41;;;;;;;6.68;5.00;;;11.00;99.90;;;;;;4953681;28;20239;-68
2024/02/29 12:33:08;;;;;;;5.82;4.68;;;11.00;99.90;;;;;;4948539;28;20207;-69
2024/02/29 12:35:34;;;;;;;6.90;4.60;;;11.10;99.90;;;;;;4956032;28;20684;-69
2024/02/29 12:38:03;;;;;;;9.70;5.20;;;11.20;99.90;;;;;;4958131;28;20476;-69
2024/02/29 12:40:33;;;;;;;7.45;4.75;;;11.20;99.90;;;;;;4956186;28;20474;-69
2024/02/29 12:43:00;;;;;;;10.83;5.50;;;11.20;99.90;;;;;;4959749;28;20217;-69
2024/02/29 12:45:28;;;;;;;5.80;4.70;;;11.20;99.90;;;;;;4959493;28;20977;-68
2024/02/29 12:47:55;;;;;;;4.80;4.17;;;11.40;99.90;;;;;;4960929;28;20212;-68
2024/02/29 12:50:21;;;;;;;4.90;4.20;;;11.50;99.90;;;;;;4958475;28;21183;-68
2024/02/29 12:52:53;;;;;;;4.40;3.97;;;11.60;99.90;;;;;;4960495;28;20464;-69
2024/02/29 12:55:21;;;;;;;5.40;4.40;;;11.60;99.90;;;;;;4958713;28;20457;-68
2024/02/29 12:57:49;;;;;;;7.00;5.53;;;11.70;99.90;;;;;;4961693;28;20462;-68
2024/02/29 13:00:20;;;;;;;3.90;3.50;;;11.90;99.90;;;;;;4958078;28;20983;-69
2024/02/29 13:02:47;;;;;;;7.57;4.33;;;12.00;99.90;;;;;;4961213;28;20473;-68
2024/02/29 13:05:14;;;;;;;3.50;3.20;;;12.00;99.90;;;;;;4959060;28;20592;-68
2024/02/29 13:07:41;;;;;;;8.60;4.33;;;12.10;99.90;;;;;;4961696;28;20456;-68
2024/02/29 13:10:09;;;;;;;5.00;4.60;;;12.20;99.90;;;;;;4953810;28;20533;-69
2024/02/29 13:12:36;;;;;;;7.80;5.20;;;12.10;99.90;;;;;;4961188;28;20485;-68
2024/02/29 13:15:06;;;;;;;4.37;2.70;;;12.00;99.90;;;;;;4960190;28;20465;-68
2024/02/29 13:17:33;;;;;;;8.87;5.37;;;12.00;99.90;;;;;;4956652;28;20950;-68
2024/02/29 13:19:59;;;;;;;9.00;6.00;;;12.00;99.90;;;;;;4960228;28;20467;-67
2024/02/29 13:22:27;;;;;;;8.00;5.73;;;12.10;99.90;;;;;;4953367;28;20547;-68
2024/02/29 13:24:53;;;;;;;7.70;5.83;;;12.00;99.90;;;;;;4960887;28;20462;-68
2024/02/29 13:27:20;;;;;;;7.83;4.53;;;12.10;99.90;;;;;;4960015;28;20464;-70
2024/02/29 13:29:47;;;;;;;8.37;6.27;;;12.10;99.90;;;;;;4961652;28;20461;-68
2024/02/29 13:32:15;;;;;;;9.10;5.87;;;12.10;99.90;;;;;;4958740;28;20554;-69
2024/02/29 13:34:42;;;;;;;7.00;5.00;;;12.00;99.90;;;;;;4958241;28;20490;-70
2024/02/29 13:37:09;;;;;;;8.17;5.03;;;12.10;99.90;;;;;;4954454;28;20949;-69
2024/02/29 13:39:35;;;;;;;11.40;6.40;;;12.10;99.90;;;;;;4957281;28;20539;-69
2024/02/29 13:42:05;;;;;;;7.27;5.70;;;12.10;99.90;;;;;;4963652;28;20482;-68
2024/02/29 13:44:32;;;;;;;13.67;8.40;;;12.10;99.90;;;;;;4974575;28;20464;-69
2024/02/29 13:46:58;;;;;;;7.87;5.50;;;12.10;99.90;;;;;;4975324;28;20459;-67
2024/02/29 13:49:26;;;;;;;17.43;8.80;;;12.10;99.90;;;;;;4976101;28;20460;-70
2024/02/29 13:51:54;;;;;;;8.03;6.10;;;12.10;99.90;;;;;;4976770;28;20493;-69
2024/02/29 13:54:20;;;;;;;6.60;6.00;;;12.10;99.90;;;;;;4962649;28;20471;-69
2024/02/29 13:56:48;;;;;;;10.93;6.33;;;12.10;99.90;;;;;;4961548;28;20475;-69
2024/02/29 13:59:15;;;;;;;7.97;5.80;;;12.00;99.90;;;;;;4955220;28;20870;-68
2024/02/29 14:01:41;;;;;;;6.80;5.30;;;12.10;99.90;;;;;;4959108;28;20505;-69
2024/02/29 14:04:08;;;;;;;5.23;4.53;;;12.10;99.90;;;;;;4957439;28;20518;-67
2024/02/29 14:06:37;;;;;;;6.07;4.80;;;12.10;99.90;;;;;;4954459;28;20463;-69
2024/02/29 14:09:04;;;;;;;6.43;4.30;;;12.10;99.90;;;;;;4957483;28;20571;-68
2024/02/29 14:11:31;;;;;;;7.13;5.37;;;12.10;99.90;;;;;;4955197;28;20865;-68
2024/02/29 14:13:58;;;;;;;8.47;6.87;;;12.10;99.90;;;;;;4959190;28;20510;-69
2024/02/29 14:16:24;;;;;;;5.23;3.90;;;12.10;99.90;;;;;;4958681;28;20475;-68
2024/02/29 14:18:51;;;;;;;7.20;4.90;;;12.10;99.90;;;;;;4953677;28;20491;-69
2024/02/29 14:21:19;;;;;;;4.60;4.20;;;12.10;99.90;;;;;;4955640;28;20803;-68
2024/02/29 14:23:47;;;;;;;5.50;4.20;;;12.10;99.90;;;;;;4958885;28;20969;-69
2024/02/29 14:26:15;;;;;;;7.20;5.70;;;12.10;99.90;;;;;;4953024;28;20471;-69
2024/02/29 14:28:41;;;;;;;9.30;6.00;;;12.10;99.90;;;;;;4959317;28;20488;-69
2024/02/29 14:31:08;;;;;;;5.30;4.60;;;12.20;99.90;;;;;;4954505;28;20522;-69
2024/02/29 14:33:36;;;;;;;6.67;6.07;;;12.20;99.90;;;;;;4954923;28;20468;-69
2024/02/29 14:36:04;;;;;;;5.57;3.63;;;12.20;99.90;;;;;;4955779;28;20486;-67
2024/02/29 14:38:31;;;;;;;5.27;3.37;;;12.10;99.90;;;;;;4954804;28;20874;-68
2024/02/29 14:40:59;;;;;;;3.20;3.00;;;12.20;99.90;;;;;;4949211;28;20495;-68
2024/02/29 14:43:26;;;;;;;7.57;4.00;;;12.20;99.90;;;;;;4954215;28;20479;-69
2024/02/29 14:45:53;;;;;;;4.07;3.43;;;12.20;99.90;;;;;;4958083;28;20463;-67
2024/02/29 14:48:19;;;;;;;5.20;3.30;;;12.20;99.90;;;;;;4956818;28;21170;-68
2024/02/29 14:50:46;;;;;;;7.93;5.40;;;12.10;99.90;;;;;;4960435;28;20476;-69
2024/02/29 14:53:13;;;;;;;7.20;4.73;;;11.90;99.90;;;;;;4956082;28;20455;-68
2024/02/29 14:55:41;;;;;;;5.70;3.50;;;11.90;99.90;;;;;;4960034;28;21103;-68
2024/02/29 14:58:09;;;;;;;4.30;3.77;;;12.00;99.90;;;;;;4959687;28;20471;-68
2024/02/29 15:00:36;;;;;;;4.03;3.63;;;11.90;99.90;;;;;;4953568;28;20495;-68
2024/02/29 15:03:02;;;;;;;6.57;3.10;;;11.80;99.90;;;;;;4953292;28;20467;-69
2024/02/29 15:05:29;;;;;;;2.90;2.70;;;11.80;99.90;;;;;;4953471;28;20563;-69
2024/02/29 15:07:57;;;;;;;5.80;3.80;;;11.70;99.90;;;;;;4952086;28;20475;-68
2024/02/29 15:10:24;;;;;;;6.43;3.50;;;11.70;99.90;;;;;;4951417;28;20483;-68
2024/02/29 15:12:50;;;;;;;6.70;4.27;;;11.60;99.90;;;;;;4946368;28;20497;-68
2024/02/29 15:15:18;;;;;;;5.07;4.60;;;11.50;99.90;;;;;;4955828;28;20490;-67
2024/02/29 15:17:45;;;;;;;11.73;6.33;;;11.40;99.90;;;;;;4954651;28;20472;-68
2024/02/29 15:20:12;;;;;;;7.50;6.57;;;11.40;99.90;;;;;;4956991;28;20467;-70
2024/02/29 15:22:39;;;;;;;5.77;4.70;;;11.40;99.90;;;;;;4954161;28;20467;-68
2024/02/29 15:25:14;;;;;;;5.00;4.60;;;11.30;99.90;;;;;;4959476;28;20464;-68
2024/02/29 15:27:41;;;;;;;14.20;8.37;;;11.30;99.90;;;;;;4956451;28;20533;-68
2024/02/29 15:30:09;;;;;;;15.73;7.27;;;11.30;99.90;;;;;;4959152;28;20463;-67
2024/02/29 15:32:38;;;;;;;8.00;6.40;;;11.30;99.90;;;;;;4941605;28;20494;-68
2024/02/29 15:35:05;;;;;;;8.03;5.70;;;11.20;99.90;;;;;;4953502;28;20466;-69
2024/02/29 15:37:32;;;;;;;14.00;5.67;;;11.20;99.90;;;;;;4955271;28;20477;-67
2024/02/29 15:39:59;;;;;;;7.30;4.90;;;11.40;99.90;;;;;;4944501;28;20472;-69
2024/02/29 15:42:26;;;;;;;12.50;6.60;;;11.40;99.90;;;;;;4953790;28;20505;-68
2024/02/29 15:44:53;;;;;;;5.27;4.43;;;11.50;99.90;;;;;;4959426;28;20957;-68
2024/02/29 15:47:19;;;;;;;7.50;4.77;;;11.50;99.90;;;;;;4953333;28;20970;-68
2024/02/29 15:49:48;;;;;;;6.80;5.73;;;11.30;99.90;;;;;;4958871;28;20962;-67
2024/02/29 15:52:15;;;;;;;5.63;3.00;;;11.30;99.90;;;;;;4958352;28;20950;-68
2024/02/29 15:54:43;;;;;;;5.57;4.90;;;11.30;99.90;;;;;;4953821;28;20501;-70
2024/02/29 15:57:09;;;;;;;9.23;4.67;;;11.30;99.90;;;;;;4959000;28;20464;-68
2024/02/29 15:59:36;;;;;;;6.70;4.70;;;11.20;99.90;;;;;;4951396;28;20482;-70
2024/02/29 16:02:03;;;;;;;8.00;5.80;;;11.10;99.90;;;;;;4950391;28;20490;-67
2024/02/29 16:04:30;;;;;;;11.07;5.85;;;11.10;99.90;;;;;;4951084;28;20472;-67
2024/02/29 16:06:58;;;;;;;7.10;5.90;;;11.00;99.90;;;;;;4949907;28;20214;-67
2024/02/29 16:09:26;;;;;;;8.47;5.77;;;11.00;99.90;;;;;;4948082;28;20470;-70
2024/02/29 16:11:53;;;;;;;5.72;5.20;;;11.00;99.90;;;;;;4948479;28;20548;-70
2024/02/29 16:14:20;;;;;;;7.63;4.50;;;10.90;99.90;;;;;;4943110;28;20567;-68
2024/02/29 16:16:47;;;;;;;6.20;3.70;;;10.90;99.90;;;;;;4957017;28;20483;-67
2024/02/29 16:19:15;;;;;;;4.15;3.75;;;10.90;99.90;;;;;;4949638;28;20481;-68
2024/02/29 16:21:42;;;;;;;3.43;3.10;;;11.00;99.90;;;;;;4948857;28;20233;-67
2024/02/29 16:24:10;;;;;;;6.85;4.18;;;11.00;99.90;;;;;;4956332;28;20462;-67
2024/02/29 16:26:37;;;;;;;3.90;3.50;;;11.00;99.90;;;;;;4957512;28;20207;-68
2024/02/29 16:29:04;;;;;;;5.43;4.50;;;11.00;99.90;;;;;;4951178;28;20203;-69
2024/02/29 16:31:30;;;;;;;6.70;4.45;;;10.90;99.90;;;;;;4954078;28;20488;-68
2024/02/29 16:33:57;;;;;;;4.25;3.80;;;10.80;99.90;;;;;;4952186;28;20212;-68
2024/02/29 16:36:24;;;;;;;4.20;3.43;;;10.80;99.90;;;;;;4952384;28;20213;-69
2024/02/29 16:38:51;;;;;;;5.13;4.50;;;10.70;99.90;;;;;;4947176;28;20471;-70
2024/02/29 16:41:19;;;;;;;5.55;5.00;;;10.70;99.90;;;;;;4953517;28;20225;-67
2024/02/29 16:43:47;;;;;;;9.15;5.07;;;10.60;99.90;;;;;;4957169;28;20219;-69
2024/02/29 16:46:13;;;;;;;4.85;4.35;;;10.50;99.90;;;;;;4955145;28;20269;-68
2024/02/29 16:48:40;;;;;;;6.82;3.50;;;10.50;99.90;;;;;;4954752;28;20206;-69
2024/02/29 16:51:07;;;;;;;10.75;4.28;;;10.50;99.90;;;;;;4948907;28;20225;-68
2024/02/29 16:53:34;;;;;;;6.90;4.05;;;10.40;99.90;;;;;;4948367;28;20233;-67
2024/02/29 16:56:00;;;;;;;8.18;4.47;;;10.40;99.90;;;;;;4950784;28;20232;-68
2024/02/29 16:58:28;;;;;;;6.80;5.28;;;10.40;99.90;;;;;;4954316;28;20210;-68
2024/02/29 17:00:55;;;;;;;7.32;4.45;;;10.30;99.90;;;;;;4960290;28;20243;-69
2024/02/29 17:03:22;;;;;;;4.10;3.83;;;10.30;99.90;;;;;;4952289;28;20212;-68
2024/02/29 17:05:49;;;;;;;2.45;2.25;;;10.20;99.90;;;;;;4961296;28;20220;-69
2024/02/29 17:08:15;;;;;;;6.43;4.15;;;10.20;99.90;;;;;;4953673;28;20213;-68
2024/02/29 17:10:42;;;;;;;3.40;2.22;;;10.10;99.90;;;;;;4952400;28;20308;-67
2024/02/29 17:13:09;;;;;;;4.30;3.88;;;10.10;99.90;;;;;;4950471;28;20237;-68
2024/02/29 17:15:37;;;;;;;7.43;4.75;;;10.00;99.90;;;;;;4955768;28;20212;-68
2024/02/29 17:18:04;;;;;;;5.32;4.82;;;9.90;99.90;;;;;;4962685;28;20213;-68
2024/02/29 17:20:30;;;;;;;4.55;3.40;;;9.80;99.90;;;;;;4954879;28;20210;-69
2024/02/29 17:22:57;;;;;;;6.03;4.10;;;9.70;99.90;;;;;;4953267;28;20213;-69
2024/02/29 17:25:24;;;;;;;6.55;3.38;;;9.70;99.90;;;;;;4954848;28;20209;-68
2024/02/29 17:27:50;;;;;;;4.95;3.92;;;9.60;99.90;;;;;;4956775;28;20216;-68
2024/02/29 17:30:17;;;;;;;5.57;4.15;;;9.60;99.90;;;;;;4955417;28;20216;-68
2024/02/29 17:32:47;;;;;;;8.63;5.05;;;9.60;99.90;;;;;;4954645;28;20229;-68
2024/02/29 17:35:15;;;;;;;10.60;4.82;;;9.50;99.90;;;;;;4956605;28;20213;-68
2024/02/29 17:37:41;;;;;;;7.68;4.70;;;9.50;99.90;;;;;;4958802;28;20298;-67
2024/02/29 17:40:09;;;;;;;4.20;3.40;;;9.40;99.90;;;;;;4949350;28;20216;-68
2024/02/29 17:42:35;;;;;;;3.50;3.00;;;9.40;99.90;;;;;;4954246;28;20594;-68
2024/02/29 17:45:02;;;;;;;13.30;6.53;;;9.30;99.90;;;;;;4956299;28;20214;-68
2024/02/29 17:47:29;;;;;;;5.05;4.50;;;9.30;99.90;;;;;;4959230;28;20220;-68